createdAt,value
2018-11-10T00:00:56.230Z,97614.55
2018-11-10T00:03:22.681Z,97611.31
2018-11-10T00:05:49.080Z,97610.78
2018-11-10T00:08:16.157Z,97593.37
2018-11-10T00:10:42.570Z,97598.53
2018-11-10T00:13:08.982Z,97604.17
2018-11-10T00:15:35.462Z,97598.03
2018-11-10T00:18:06.174Z,97587.65
2018-11-10T00:20:33.302Z,97596.43
2018-11-10T00:23:01.363Z,97588.62
2018-11-10T00:25:33.147Z,97584.00
2018-11-10T00:27:59.576Z,97594.36
2018-11-10T01:01:04.296Z,97546.38
2018-11-10T01:03:30.753Z,97536.69
2018-11-10T01:05:57.272Z,97548.23
2018-11-10T01:08:24.096Z,97541.85
2018-11-10T01:29:43.366Z,97525.06
2018-11-10T01:45:21.654Z,97486.16
2018-11-10T01:48:24.737Z,97475.25
2018-11-10T01:50:51.518Z,97474.88
2018-11-10T02:12:29.434Z,97426.88
2018-11-10T02:14:56.068Z,97425.69
2018-11-10T02:17:22.765Z,97432.19
2018-11-10T02:19:50.054Z,97429.47
2018-11-10T02:26:17.351Z,97429.61
2018-11-10T02:28:43.942Z,97441.00
2018-11-10T02:31:10.351Z,97431.65
2018-11-10T02:33:36.837Z,97436.48
2018-11-10T02:36:04.702Z,97435.02
2018-11-10T02:38:31.145Z,97426.05
2018-11-10T02:40:57.576Z,97422.80
2018-11-10T02:43:25.892Z,97422.80
2018-11-10T02:45:52.609Z,97419.94
2018-11-10T02:48:19.186Z,97430.44
2018-11-10T02:50:45.719Z,97417.59
2018-11-10T02:53:12.135Z,97420.00
2018-11-10T02:55:38.700Z,97418.30
2018-11-10T02:58:05.259Z,97416.88
2018-11-10T03:00:31.662Z,97422.28
2018-11-10T03:02:58.349Z,97415.80
2018-11-10T03:05:24.759Z,97419.30
2018-11-10T03:07:51.184Z,97409.09
2018-11-10T03:10:17.907Z,97404.98
2018-11-10T03:12:44.305Z,97407.53
2018-11-10T03:22:24.979Z,97385.41
2018-11-10T03:24:51.446Z,97381.78
2018-11-10T03:27:18.005Z,97386.36
2018-11-10T03:29:45.051Z,97372.89
2018-11-10T03:32:11.482Z,97388.29
2018-11-10T03:49:57.807Z,97369.64
2018-11-10T03:52:24.310Z,97366.27
2018-11-10T03:54:51.360Z,97361.22
2018-11-10T03:57:17.794Z,97367.84
2018-11-10T03:59:44.255Z,97357.63
2018-11-10T04:02:11.580Z,97364.11
2018-11-10T04:04:38.622Z,97358.20
2018-11-10T04:07:05.059Z,97359.29
2018-11-10T04:09:32.236Z,97359.19
2018-11-10T04:11:58.733Z,97352.59
2018-11-10T04:14:26.946Z,97351.16
2018-11-10T04:16:53.450Z,97350.53
2018-11-10T04:21:40.862Z,97337.19
2018-11-10T04:24:07.657Z,97341.02
2018-11-10T04:26:34.214Z,97337.40
2018-11-10T04:40:50.253Z,97310.19
2018-11-10T04:46:37.902Z,97295.12
2018-11-10T05:32:14.514Z,97277.06
2018-11-10T06:02:14.306Z,97269.56
2018-11-10T06:04:42.147Z,97256.23
2018-11-10T06:12:29.123Z,97268.12
2018-11-10T06:14:55.580Z,97272.95
2018-11-10T06:26:47.047Z,97278.33
2018-11-10T06:33:44.265Z,97288.23
2018-11-10T06:36:10.716Z,97280.05
2018-11-10T06:54:58.203Z,97323.20
2018-11-10T06:57:24.718Z,97323.91
2018-11-10T06:59:51.482Z,97319.70
2018-11-10T07:02:17.878Z,97314.42
2018-11-10T07:04:44.391Z,97319.00
2018-11-10T07:07:11.369Z,97327.40
2018-11-10T07:09:37.825Z,97320.41
2018-11-10T07:12:04.236Z,97318.37
2018-11-10T07:14:30.921Z,97316.21
2018-11-10T07:16:57.318Z,97313.43
2018-11-10T07:19:24.368Z,97316.78
2018-11-10T07:21:51.067Z,97323.39
2018-11-10T07:24:17.477Z,97322.81
2018-11-10T07:26:43.874Z,97311.02
2018-11-10T07:29:10.577Z,97317.63
2018-11-10T07:31:37.005Z,97316.44
2018-11-10T07:34:08.020Z,97311.73
2018-11-10T07:44:46.953Z,97313.05
2018-11-10T07:47:15.038Z,97316.44
2018-11-10T07:50:38.577Z,97328.95
2018-11-10T07:56:21.003Z,97338.53
2018-11-10T08:02:55.425Z,97324.75
2018-11-10T08:05:21.959Z,97314.75
2018-11-10T08:07:48.999Z,97326.92
2018-11-10T08:10:15.417Z,97328.95
2018-11-10T08:12:41.834Z,97333.77
2018-11-10T08:15:08.547Z,97324.38
2018-11-10T08:18:53.374Z,97318.52
2018-11-10T08:21:23.043Z,97330.18
2018-11-10T08:53:57.267Z,97312.98
2018-11-10T09:12:59.265Z,97325.87
2018-11-10T09:15:25.675Z,97344.01
2018-11-10T09:17:52.484Z,97351.00
2018-11-10T09:20:19.805Z,97350.15
2018-11-10T09:55:32.189Z,97368.45
2018-11-10T09:57:58.658Z,97373.38
2018-11-10T10:00:25.399Z,97361.59
2018-11-10T10:02:52.631Z,97361.94
2018-11-10T10:05:20.236Z,97368.30
2018-11-10T10:23:19.985Z,97358.23
2018-11-10T11:38:01.276Z,97321.92
2018-11-10T11:40:27.703Z,97322.02
2018-11-10T11:42:54.648Z,97330.17
2018-11-10T11:45:21.080Z,97326.47
2018-11-10T12:27:50.648Z,97296.75
2018-11-10T12:30:17.463Z,97291.88
2018-11-10T12:42:27.510Z,97288.87
2018-11-10T12:44:57.076Z,97296.34
2018-11-10T12:47:23.515Z,97295.09
2018-11-10T12:49:50.206Z,97290.02
2018-11-10T12:52:17.248Z,97290.14
2018-11-10T12:54:43.834Z,97290.23
2018-11-10T12:57:10.559Z,97288.14
2018-11-10T12:59:36.974Z,97289.19
2018-11-10T13:02:03.382Z,97283.56
2018-11-10T13:04:30.087Z,97278.26
2018-11-10T13:06:56.511Z,97280.87
2018-11-10T13:09:22.923Z,97272.73
2018-11-10T13:11:49.730Z,97284.06
2018-11-10T13:14:16.076Z,97282.45
2018-11-10T13:16:42.486Z,97273.28
2018-11-10T13:19:09.194Z,97270.45
2018-11-10T13:21:35.640Z,97271.59
2018-11-10T13:24:02.180Z,97258.42
2018-11-10T13:26:29.655Z,97255.73
2018-11-10T13:28:56.981Z,97256.87
2018-11-10T13:31:23.509Z,97253.52
2018-11-10T13:33:50.134Z,97253.41
2018-11-10T13:36:16.566Z,97251.39
2018-11-10T13:38:43.030Z,97260.58
2018-11-10T13:41:09.839Z,97256.02
2018-11-10T13:43:36.279Z,97243.17
2018-11-10T13:46:05.222Z,97253.51
2018-11-10T13:48:32.215Z,97254.61
2018-11-10T13:50:58.865Z,97256.89
2018-11-10T13:53:25.367Z,97238.38
2018-11-10T13:55:55.249Z,97252.13
2018-11-10T16:23:13.310Z,97233.63
2018-11-10T16:25:39.770Z,97233.98
2018-11-10T16:28:07.437Z,97240.23
2018-11-10T16:30:34.079Z,97233.73
2018-11-10T16:33:00.657Z,97232.75
2018-11-10T16:35:27.523Z,97231.89
2018-11-10T16:37:53.970Z,97222.62
2018-11-10T16:40:20.486Z,97225.89
2018-11-10T16:46:10.423Z,97235.42
2018-11-10T16:48:37.287Z,97234.30
2018-11-10T16:51:03.890Z,97238.75
2018-11-10T16:57:35.473Z,97236.95
2018-11-10T17:00:01.868Z,97252.93
2018-11-10T17:02:28.664Z,97256.03
2018-11-10T17:05:00.111Z,97242.46
2018-11-10T17:07:26.670Z,97246.69
2018-11-10T17:09:54.655Z,97253.89
2018-11-10T17:54:20.344Z,97261.24
2018-11-10T18:14:28.219Z,97281.69
2018-11-10T18:49:04.305Z,97253.80
2018-11-10T19:07:46.088Z,97254.27
2018-11-10T19:10:13.356Z,97261.71
2018-11-10T19:12:41.163Z,97257.66
2018-11-10T19:15:09.225Z,97270.53
2018-11-10T20:16:01.035Z,97285.32
2018-11-10T20:36:30.418Z,97281.50
2018-11-10T21:07:37.613Z,97305.07
2018-11-10T21:10:04.110Z,97309.75
2018-11-10T21:12:33.171Z,97302.89
2018-11-10T21:18:41.843Z,97319.48
2018-11-10T21:21:08.486Z,97318.64
2018-11-10T21:23:35.692Z,97321.66
2018-11-10T21:42:43.630Z,97344.02
2018-11-10T22:04:59.752Z,97342.59
2018-11-10T22:23:06.860Z,97352.58
2018-11-10T22:25:33.814Z,97350.17
2018-11-10T22:36:20.245Z,97375.04
2018-11-10T22:38:46.758Z,97376.36
2018-11-10T22:41:13.733Z,97379.24
2018-11-10T22:43:40.855Z,97366.16
2018-11-10T22:46:08.381Z,97366.39
2018-11-10T22:48:37.212Z,97369.64
